Time;durP1;ratioP1;P1;durP2;ratioP2;P2;SDS_P1;SDS_P2;PMS_P1;PMS_P2;Temp;Humidity;BMP_temperature;BMP_pressure;BME280_temperature;BME280_humidity;BME280_pressure;Samples;Min_cycle;Max_cycle;Signal;HPM_P1;HPM_P2
2022/11/07 00:01:10;;;;;;;18.10;13.53;;;8.70;99.90;;;;;;5096337;28;20446;-45
2022/11/07 00:03:37;;;;;;;17.70;13.90;;;8.60;99.90;;;;;;5099116;28;20462;-46
2022/11/07 00:06:04;;;;;;;18.50;14.03;;;9.00;99.90;;;;;;5099081;28;20843;-46
2022/11/07 00:08:31;;;;;;;17.50;14.70;;;8.60;99.90;;;;;;5099200;28;20437;-45
2022/11/07 00:10:58;;;;;;;19.20;15.60;;;8.80;99.90;;;;;;5096213;28;20412;-46
2022/11/07 00:13:26;;;;;;;20.97;15.50;;;8.90;99.90;;;;;;5092481;28;20449;-45
2022/11/07 00:15:53;;;;;;;19.87;14.10;;;8.20;99.90;;;;;;5091713;28;20435;-45
2022/11/07 00:18:20;;;;;;;16.37;14.20;;;9.40;99.90;;;;;;5092019;28;20432;-45
2022/11/07 00:20:47;;;;;;;20.00;14.63;;;8.70;99.90;;;;;;5091531;28;20440;-45
2022/11/07 00:23:13;;;;;;;18.93;14.73;;;8.80;99.90;;;;;;5095361;28;20455;-43
2022/11/07 00:25:40;;;;;;;18.43;14.67;;;9.10;99.90;;;;;;5095479;28;20487;-47
2022/11/07 00:28:06;;;;;;;17.40;14.77;;;8.60;99.90;;;;;;5095744;28;20493;-46
2022/11/07 00:30:34;;;;;;;19.37;15.70;;;8.80;99.90;;;;;;5096420;28;20408;-45
2022/11/07 00:33:01;;;;;;;18.40;13.60;;;8.90;99.90;;;;;;5078251;28;20474;-44
2022/11/07 00:35:28;;;;;;;17.07;13.73;;;9.10;99.90;;;;;;5096820;28;20414;-46
2022/11/07 00:37:55;;;;;;;19.20;15.23;;;9.00;99.90;;;;;;5096966;28;20504;-45
2022/11/07 00:40:22;;;;;;;18.27;15.00;;;9.00;99.90;;;;;;5096755;28;20439;-43
2022/11/07 00:42:49;;;;;;;17.90;14.63;;;9.10;99.90;;;;;;5097318;28;20412;-46
2022/11/07 00:45:15;;;;;;;17.90;14.33;;;8.90;99.90;;;;;;5095728;28;20498;-45
2022/11/07 00:47:43;;;;;;;17.60;14.47;;;8.80;99.90;;;;;;5095598;28;20429;-47
2022/11/07 00:50:10;;;;;;;18.00;14.90;;;9.30;99.90;;;;;;5095511;28;20404;-45
2022/11/07 00:52:37;;;;;;;18.13;14.33;;;9.20;99.90;;;;;;5094804;28;20826;-45
2022/11/07 00:55:04;;;;;;;18.73;15.13;;;8.90;99.90;;;;;;5094883;28;20456;-46
2022/11/07 00:57:31;;;;;;;17.00;14.67;;;9.00;99.90;;;;;;5094459;28;20429;-46
2022/11/07 00:59:57;;;;;;;18.33;13.97;;;8.90;99.90;;;;;;5094370;28;20828;-46
2022/11/07 01:02:24;;;;;;;18.83;14.90;;;9.00;99.90;;;;;;5094642;28;20406;-45
2022/11/07 01:07:33;;;;;;;17.97;14.47;;;8.70;99.90;;;;;;5092613;28;20779;-44
2022/11/07 01:09:59;;;;;;;19.30;14.37;;;9.00;99.90;;;;;;5093901;28;20407;-45
2022/11/07 01:12:26;;;;;;;16.60;13.27;;;9.10;99.90;;;;;;5094412;28;20433;-45
2022/11/07 01:14:52;;;;;;;18.67;14.53;;;8.40;99.90;;;;;;5075999;28;20452;-47
2022/11/07 01:17:19;;;;;;;16.33;13.90;;;9.20;99.90;;;;;;5094129;28;20436;-45
2022/11/07 01:19:46;;;;;;;15.63;12.97;;;9.10;99.90;;;;;;5075791;28;20783;-45
2022/11/07 01:22:14;;;;;;;17.87;14.60;;;9.30;99.90;;;;;;5094142;28;20468;-45
2022/11/07 01:24:40;;;;;;;16.20;14.30;;;8.80;99.90;;;;;;5094194;28;20943;-45
2022/11/07 01:27:07;;;;;;;15.83;13.47;;;9.10;99.90;;;;;;5094162;28;20410;-46
2022/11/07 01:29:33;;;;;;;18.03;14.27;;;8.70;99.90;;;;;;5094012;28;20884;-45
2022/11/07 01:32:00;;;;;;;16.13;13.20;;;9.10;99.90;;;;;;5093639;28;20769;-44
2022/11/07 01:34:27;;;;;;;15.43;13.77;;;9.20;99.90;;;;;;5093985;28;20439;-44
2022/11/07 01:36:53;;;;;;;14.80;12.97;;;9.00;99.90;;;;;;5094162;28;20408;-47
2022/11/07 01:39:21;;;;;;;19.00;14.90;;;9.10;99.90;;;;;;5093504;28;20411;-46
2022/11/07 01:41:48;;;;;;;17.93;13.63;;;9.00;99.90;;;;;;5093956;28;20414;-45
2022/11/07 01:44:50;;;;;;;16.07;13.50;;;9.10;99.90;;;;;;5093597;28;20463;-44
2022/11/07 01:47:17;;;;;;;15.87;13.83;;;9.10;99.90;;;;;;5093778;28;20422;-44
2022/11/07 01:49:44;;;;;;;18.87;13.70;;;8.90;99.90;;;;;;5074748;28;20456;-46
2022/11/07 01:52:16;;;;;;;14.73;12.50;;;9.30;99.90;;;;;;5075260;28;20916;-44
2022/11/07 01:54:50;;;;;;;17.00;13.77;;;9.30;99.90;;;;;;5093414;28;20861;-45
2022/11/07 01:57:21;;;;;;;18.27;13.13;;;8.60;99.90;;;;;;5093450;28;20441;-45
2022/11/07 01:59:49;;;;;;;17.73;13.70;;;9.00;99.90;;;;;;5093026;28;20411;-45
2022/11/07 02:02:16;;;;;;;15.57;13.30;;;9.20;99.90;;;;;;5093481;28;20408;-46
2022/11/07 02:04:43;;;;;;;16.20;13.37;;;8.50;99.90;;;;;;5093194;28;20947;-45
2022/11/07 02:07:13;;;;;;;15.77;13.57;;;9.10;99.90;;;;;;5093224;28;20426;-44
2022/11/07 02:09:41;;;;;;;15.23;12.90;;;9.30;99.90;;;;;;5093638;28;20984;-46
2022/11/07 02:12:10;;;;;;;17.27;14.03;;;9.10;99.90;;;;;;5095656;28;20433;-44
2022/11/07 02:14:36;;;;;;;16.20;13.70;;;9.10;99.90;;;;;;5096826;28;20456;-46
2022/11/07 02:17:03;;;;;;;14.57;12.40;;;9.30;99.90;;;;;;5094044;28;20459;-44
2022/11/07 02:19:34;;;;;;;18.43;14.70;;;8.50;99.90;;;;;;5092704;28;20468;-45
2022/11/07 02:22:10;;;;;;;15.93;13.27;;;9.10;99.90;;;;;;5092926;28;20412;-45
2022/11/07 02:24:39;;;;;;;15.63;12.30;;;9.60;99.90;;;;;;5093521;28;20480;-44
2022/11/07 02:27:09;;;;;;;18.70;14.07;;;9.20;99.90;;;;;;5093682;28;20402;-45
2022/11/07 02:29:38;;;;;;;14.97;12.37;;;9.10;99.90;;;;;;5092948;28;20433;-45
2022/11/07 02:32:07;;;;;;;15.30;13.23;;;9.10;99.90;;;;;;5092802;28;20460;-45
2022/11/07 02:34:34;;;;;;;17.17;14.70;;;9.20;99.90;;;;;;5092571;28;20479;-45
2022/11/07 02:37:03;;;;;;;16.67;12.70;;;8.90;99.90;;;;;;5092704;28;20428;-47
2022/11/07 02:39:30;;;;;;;16.03;13.57;;;9.30;99.90;;;;;;5092539;28;20425;-44
2022/11/07 02:42:00;;;;;;;15.27;13.07;;;9.40;99.90;;;;;;5092600;28;20429;-45
2022/11/07 02:44:29;;;;;;;14.37;12.90;;;9.30;99.90;;;;;;5091695;28;20480;-46
2022/11/07 02:46:56;;;;;;;13.80;12.30;;;9.20;99.90;;;;;;5092605;28;20543;-44
2022/11/07 02:49:23;;;;;;;19.70;13.93;;;9.10;99.90;;;;;;5092395;28;20516;-46
2022/11/07 02:51:50;;;;;;;17.80;13.70;;;9.30;99.90;;;;;;5092403;28;20399;-46
2022/11/07 02:54:16;;;;;;;15.50;13.90;;;9.30;99.90;;;;;;5092636;28;20975;-45
2022/11/07 02:56:43;;;;;;;14.00;12.20;;;9.40;99.90;;;;;;5092407;28;20788;-44
2022/11/07 02:59:11;;;;;;;14.80;12.80;;;9.20;99.90;;;;;;5073896;28;20529;-46
2022/11/07 03:01:37;;;;;;;14.67;12.63;;;9.00;99.90;;;;;;5092487;28;20528;-48
2022/11/07 03:04:04;;;;;;;13.23;11.70;;;9.00;99.90;;;;;;5092908;28;20456;-45
2022/11/07 03:06:31;;;;;;;14.37;11.37;;;9.40;99.90;;;;;;5092595;28;20841;-45
2022/11/07 03:08:57;;;;;;;15.67;12.90;;;9.40;99.90;;;;;;5097613;28;20498;-46
2022/11/07 03:11:24;;;;;;;15.30;11.83;;;9.60;99.90;;;;;;5100039;28;20445;-46
2022/11/07 03:13:52;;;;;;;13.70;11.97;;;9.40;99.90;;;;;;5081953;28;20460;-45
2022/11/07 03:16:21;;;;;;;13.33;11.90;;;9.20;99.90;;;;;;5099623;28;20417;-45
2022/11/07 03:18:47;;;;;;;17.00;13.40;;;9.40;99.90;;;;;;5078157;28;20455;-45
2022/11/07 03:21:14;;;;;;;12.80;11.03;;;9.30;99.90;;;;;;5093924;28;20885;-46
2022/11/07 03:23:41;;;;;;;11.90;10.63;;;9.20;99.90;;;;;;5092331;28;20494;-45
2022/11/07 03:26:07;;;;;;;12.47;11.17;;;9.60;99.90;;;;;;5092208;28;20447;-44
2022/11/07 03:28:34;;;;;;;13.00;10.80;;;9.00;99.90;;;;;;5091815;28;20420;-45
2022/11/07 03:31:02;;;;;;;12.03;10.73;;;9.40;99.90;;;;;;5091903;28;20951;-45
2022/11/07 03:33:30;;;;;;;12.60;11.30;;;9.40;99.90;;;;;;5091985;28;20584;-45
2022/11/07 03:35:57;;;;;;;12.97;10.63;;;9.90;99.90;;;;;;5091939;28;20429;-45
2022/11/07 03:38:24;;;;;;;16.40;11.50;;;9.50;99.90;;;;;;5092096;28;20416;-45
2022/11/07 03:40:50;;;;;;;12.43;11.23;;;8.90;99.90;;;;;;5092857;28;20436;-46
2022/11/07 03:43:17;;;;;;;11.83;10.47;;;9.90;99.90;;;;;;5092789;28;20436;-45
2022/11/07 03:45:44;;;;;;;10.83;9.73;;;9.50;99.90;;;;;;5092944;28;20484;-45
2022/11/07 03:48:10;;;;;;;13.83;10.73;;;9.20;99.90;;;;;;5092662;28;20945;-45
2022/11/07 03:50:38;;;;;;;11.97;10.73;;;9.60;99.90;;;;;;5073709;28;20816;-45
2022/11/07 03:53:05;;;;;;;15.47;10.80;;;9.80;99.90;;;;;;5092206;28;20921;-44
2022/11/07 03:55:31;;;;;;;12.60;11.07;;;9.50;99.90;;;;;;5093774;28;20440;-45
2022/11/07 03:57:58;;;;;;;10.80;9.67;;;9.60;99.90;;;;;;5096611;28;20448;-44
2022/11/07 04:00:24;;;;;;;12.10;10.07;;;9.70;99.90;;;;;;5096327;28;20799;-44
2022/11/07 04:02:51;;;;;;;12.40;11.10;;;9.50;99.90;;;;;;5096707;28;20828;-44
2022/11/07 04:05:17;;;;;;;11.20;9.67;;;9.80;99.90;;;;;;5096879;28;20476;-44
2022/11/07 04:07:45;;;;;;;9.90;8.90;;;9.80;99.90;;;;;;5096575;28;20443;-45
2022/11/07 04:10:12;;;;;;;10.77;9.67;;;9.50;99.90;;;;;;5095790;28;20503;-45
2022/11/07 04:18:07;;;;;;;11.07;9.33;;;9.90;99.90;;;;;;5097051;28;21086;-45
2022/11/07 04:20:34;;;;;;;10.27;9.27;;;9.60;99.90;;;;;;5077227;28;20419;-45
2022/11/07 04:23:02;;;;;;;11.27;9.90;;;9.70;99.90;;;;;;5095881;28;20941;-45
2022/11/07 04:28:15;;;;;;;12.30;11.00;;;9.80;99.90;;;;;;5095171;28;20435;-45
2022/11/07 04:30:41;;;;;;;10.97;9.50;;;9.80;99.90;;;;;;5094791;28;20445;-46
2022/11/07 04:33:08;;;;;;;10.63;9.23;;;9.90;99.90;;;;;;5094716;28;20440;-45
2022/11/07 04:35:34;;;;;;;9.90;8.90;;;10.20;99.90;;;;;;5109176;22;20865;-46
2022/11/07 04:38:02;;;;;;;10.53;9.37;;;9.40;99.90;;;;;;5095189;28;20928;-46
2022/11/07 04:40:30;;;;;;;9.40;8.40;;;10.50;99.90;;;;;;5094795;28;20429;-46
2022/11/07 04:42:56;;;;;;;10.90;9.70;;;9.70;99.90;;;;;;5095043;28;20440;-47
2022/11/07 04:45:23;;;;;;;11.20;9.17;;;10.50;99.90;;;;;;5094536;28;20454;-45
2022/11/07 04:47:50;;;;;;;13.63;8.80;;;9.80;99.90;;;;;;5094677;28;20951;-48
2022/11/07 04:50:19;;;;;;;10.43;8.80;;;10.00;99.90;;;;;;5094757;28;20399;-47
2022/11/07 04:52:46;;;;;;;12.33;9.20;;;9.70;99.90;;;;;;5095090;28;20478;-45
2022/11/07 04:55:20;;;;;;;12.00;9.43;;;9.90;99.90;;;;;;5094509;28;20427;-46
2022/11/07 04:57:47;;;;;;;9.60;8.60;;;10.20;99.90;;;;;;5095333;28;20983;-47
2022/11/07 05:00:14;;;;;;;8.97;7.80;;;9.80;99.90;;;;;;5094255;28;20436;-46
2022/11/07 05:02:41;;;;;;;10.13;9.03;;;10.10;99.90;;;;;;5094823;28;20414;-47
2022/11/07 05:05:09;;;;;;;9.90;8.87;;;10.00;99.90;;;;;;5094740;28;20453;-47
2022/11/07 05:07:35;;;;;;;9.90;8.90;;;10.20;99.90;;;;;;5093649;28;20443;-47
2022/11/07 05:10:02;;;;;;;10.97;9.80;;;10.00;99.90;;;;;;5093979;28;20433;-47
2022/11/07 05:12:30;;;;;;;9.70;8.70;;;9.90;99.90;;;;;;5094371;28;20809;-48
2022/11/07 05:14:57;;;;;;;9.70;8.70;;;10.10;99.90;;;;;;5075240;28;20522;-47
2022/11/07 05:17:24;;;;;;;10.13;8.57;;;9.90;99.90;;;;;;5094264;28;20425;-47
2022/11/07 05:19:53;;;;;;;9.43;8.43;;;10.10;99.90;;;;;;5075898;28;20795;-46
2022/11/07 05:25:05;;;;;;;9.40;8.50;;;10.10;99.90;;;;;;5075831;28;20436;-47
2022/11/07 05:27:34;;;;;;;9.13;8.23;;;10.10;99.90;;;;;;5094054;28;20443;-46
2022/11/07 05:30:01;;;;;;;10.60;9.20;;;10.00;99.90;;;;;;5075731;28;20452;-46
2022/11/07 05:32:30;;;;;;;9.97;8.97;;;10.10;99.90;;;;;;5093858;28;20403;-47
2022/11/07 05:34:56;;;;;;;11.40;8.03;;;10.50;99.90;;;;;;5093869;28;20472;-45
2022/11/07 05:37:23;;;;;;;9.17;7.80;;;10.60;99.90;;;;;;5076022;28;20443;-47
2022/11/07 05:39:50;;;;;;;9.70;8.70;;;9.70;99.90;;;;;;5093565;28;20521;-46
2022/11/07 05:42:17;;;;;;;11.23;9.07;;;10.60;99.90;;;;;;5094060;28;20433;-47
2022/11/07 05:44:45;;;;;;;10.30;8.13;;;9.70;99.90;;;;;;5093691;28;20433;-46
2022/11/07 05:47:12;;;;;;;9.00;8.10;;;10.10;99.90;;;;;;5093626;28;20447;-47
2022/11/07 05:49:41;;;;;;;15.60;9.13;;;9.60;99.90;;;;;;5075287;28;20528;-46
2022/11/07 05:52:08;;;;;;;10.30;8.23;;;10.10;99.90;;;;;;5093944;28;20442;-48
2022/11/07 05:54:35;;;;;;;10.40;8.10;;;10.10;99.90;;;;;;5093647;28;20449;-47
2022/11/07 05:57:01;;;;;;;9.80;8.47;;;10.20;99.90;;;;;;5075190;28;20421;-47
2022/11/07 05:59:30;;;;;;;10.10;9.00;;;10.10;99.90;;;;;;5093155;28;20429;-47
2022/11/07 06:01:59;;;;;;;9.57;8.40;;;10.50;99.90;;;;;;5093509;28;20440;-47
2022/11/07 06:04:25;;;;;;;10.30;7.50;;;10.20;99.90;;;;;;5093359;28;20422;-47
2022/11/07 06:06:52;;;;;;;11.47;7.63;;;10.50;99.90;;;;;;5093296;28;20448;-47
2022/11/07 06:09:19;;;;;;;11.23;7.57;;;10.40;99.90;;;;;;5093185;28;20433;-47
2022/11/07 06:11:48;;;;;;;8.80;7.90;;;10.20;99.90;;;;;;5093451;28;20947;-47
2022/11/07 06:14:15;;;;;;;9.33;8.30;;;10.30;99.90;;;;;;5093254;28;20457;-46
2022/11/07 06:16:44;;;;;;;10.90;8.73;;;10.10;99.90;;;;;;5093575;28;20426;-48
2022/11/07 06:19:12;;;;;;;10.13;7.60;;;10.40;99.90;;;;;;5093157;28;20428;-46
2022/11/07 06:21:40;;;;;;;8.53;7.27;;;10.10;99.90;;;;;;5075053;28;20462;-47
2022/11/07 06:24:10;;;;;;;17.50;7.63;;;10.20;99.90;;;;;;5093388;28;20438;-46
2022/11/07 06:26:37;;;;;;;15.13;7.27;;;10.10;99.90;;;;;;5074763;28;20857;-46
2022/11/07 06:29:04;;;;;;;10.93;8.03;;;10.50;99.90;;;;;;5092587;28;20429;-47
2022/11/07 06:31:31;;;;;;;12.17;7.30;;;10.20;99.90;;;;;;5074557;28;20456;-47
2022/11/07 06:33:57;;;;;;;7.40;6.10;;;10.40;99.90;;;;;;5092935;28;20463;-47
2022/11/07 06:36:26;;;;;;;14.50;7.33;;;10.30;99.90;;;;;;5092636;28;20433;-48
2022/11/07 06:38:53;;;;;;;7.93;6.87;;;10.50;99.90;;;;;;5074424;28;20452;-47
2022/11/07 06:41:22;;;;;;;11.40;7.90;;;10.50;99.90;;;;;;5094467;28;20425;-46
2022/11/07 06:43:50;;;;;;;12.23;8.27;;;10.30;99.90;;;;;;5093931;28;20445;-46
2022/11/07 06:46:24;;;;;;;10.37;7.00;;;10.50;99.90;;;;;;5075385;28;20564;-47
2022/11/07 06:48:51;;;;;;;12.00;8.00;;;10.30;99.90;;;;;;5093687;28;20433;-47
2022/11/07 06:51:18;;;;;;;14.87;7.27;;;10.60;99.90;;;;;;5093165;28;20436;-46
2022/11/07 06:53:46;;;;;;;10.60;8.63;;;10.30;99.90;;;;;;5092391;28;20468;-47
2022/11/07 06:56:16;;;;;;;8.10;6.30;;;10.40;99.90;;;;;;5092540;28;20864;-47
2022/11/07 06:58:45;;;;;;;13.10;7.20;;;10.80;99.90;;;;;;5073878;28;20448;-46
2022/11/07 07:01:13;;;;;;;10.67;6.67;;;10.90;99.90;;;;;;5092529;28;20802;-47
2022/11/07 07:03:41;;;;;;;12.90;7.07;;;10.50;99.90;;;;;;5074238;28;20461;-47
2022/11/07 07:06:13;;;;;;;7.77;7.03;;;10.60;99.90;;;;;;5092553;28;20472;-47
2022/11/07 07:08:40;;;;;;;12.67;7.10;;;10.70;99.90;;;;;;5092425;28;20521;-47
2022/11/07 07:11:10;;;;;;;9.80;6.00;;;10.70;99.90;;;;;;5092564;28;20430;-46
2022/11/07 07:13:38;;;;;;;8.00;6.17;;;10.80;99.90;;;;;;5074236;28;20466;-46
2022/11/07 07:16:06;;;;;;;8.63;6.90;;;10.40;99.90;;;;;;5092792;28;20425;-47
2022/11/07 07:18:33;;;;;;;8.17;6.40;;;10.70;99.90;;;;;;5092110;28;20774;-46
2022/11/07 07:21:06;;;;;;;8.10;6.73;;;10.30;99.90;;;;;;5093009;28;20525;-46
2022/11/07 07:23:33;;;;;;;9.03;6.20;;;10.60;99.90;;;;;;5093360;28;20405;-46
2022/11/07 07:26:00;;;;;;;9.20;6.10;;;10.90;99.90;;;;;;5093048;28;20491;-46
2022/11/07 07:28:29;;;;;;;6.73;5.90;;;11.00;99.90;;;;;;5092508;28;20525;-46
2022/11/07 07:31:08;;;;;;;6.70;6.00;;;11.30;99.90;;;;;;5097901;28;20974;-48
2022/11/07 07:33:34;;;;;;;9.93;6.93;;;11.00;99.90;;;;;;5099976;28;20423;-48
2022/11/07 07:36:01;;;;;;;6.30;5.70;;;10.80;99.90;;;;;;5100738;28;20495;-47
2022/11/07 07:38:30;;;;;;;7.13;6.43;;;10.90;99.90;;;;;;5099189;28;20919;-48
2022/11/07 07:40:58;;;;;;;10.50;6.40;;;11.40;99.90;;;;;;5099952;28;20427;-47
2022/11/07 07:43:25;;;;;;;10.47;6.90;;;11.20;99.90;;;;;;5099931;28;20411;-46
2022/11/07 07:45:54;;;;;;;9.37;6.57;;;10.90;99.90;;;;;;5081500;28;20448;-48
2022/11/07 07:48:21;;;;;;;10.33;6.77;;;11.20;99.90;;;;;;5099476;28;20478;-51
2022/11/07 07:50:48;;;;;;;10.13;5.83;;;11.10;99.90;;;;;;5081655;28;20447;-46
2022/11/07 07:53:15;;;;;;;9.50;6.00;;;11.10;99.90;;;;;;5099521;28;20405;-48
2022/11/07 07:55:42;;;;;;;12.50;8.80;;;10.50;99.90;;;;;;5099691;28;21019;-46
2022/11/07 07:58:09;;;;;;;9.13;5.63;;;10.70;99.90;;;;;;5098948;28;20439;-46
2022/11/07 08:00:36;;;;;;;24.03;6.60;;;10.70;99.90;;;;;;5098753;28;20933;-47
2022/11/07 08:03:07;;;;;;;12.10;5.83;;;11.10;99.90;;;;;;5081204;28;20445;-47
2022/11/07 08:05:34;;;;;;;7.67;6.10;;;11.40;99.90;;;;;;5099666;28;20436;-47
2022/11/07 08:08:01;;;;;;;7.07;6.30;;;10.50;99.90;;;;;;5080042;28;20500;-47
2022/11/07 08:10:27;;;;;;;12.23;7.43;;;11.20;99.90;;;;;;5098388;28;20834;-46
2022/11/07 08:12:54;;;;;;;17.03;9.77;;;11.00;99.90;;;;;;5080780;28;20457;-47
2022/11/07 08:15:21;;;;;;;23.00;11.37;;;11.20;99.90;;;;;;5080517;28;20535;-47
2022/11/07 08:17:49;;;;;;;23.20;11.70;;;11.20;99.90;;;;;;5099113;28;20409;-46
2022/11/07 08:20:19;;;;;;;20.20;12.50;;;11.30;99.90;;;;;;5098418;28;20461;-46
2022/11/07 08:22:46;;;;;;;29.70;16.13;;;11.10;99.90;;;;;;5080577;28;20432;-46
2022/11/07 08:25:13;;;;;;;16.60;10.50;;;11.50;99.90;;;;;;5080475;28;20440;-47
2022/11/07 08:27:40;;;;;;;12.23;6.20;;;11.60;99.90;;;;;;5098701;28;20490;-47
2022/11/07 08:30:10;;;;;;;8.60;7.07;;;11.20;99.90;;;;;;5080131;28;20458;-47
2022/11/07 08:32:37;;;;;;;8.07;5.67;;;11.20;99.90;;;;;;5080097;28;20604;-49
2022/11/07 08:35:04;;;;;;;6.77;5.40;;;11.20;99.90;;;;;;5080556;28;20463;-47
2022/11/07 08:37:33;;;;;;;6.00;4.83;;;11.30;99.90;;;;;;5098231;28;20462;-48
2022/11/07 08:39:59;;;;;;;7.90;5.37;;;11.10;99.90;;;;;;5097983;28;20435;-49
2022/11/07 08:42:26;;;;;;;11.80;5.03;;;11.80;99.90;;;;;;5095722;28;20408;-47
2022/11/07 08:44:53;;;;;;;10.77;4.77;;;11.90;99.90;;;;;;5076831;28;20567;-47
2022/11/07 08:47:20;;;;;;;7.93;4.43;;;11.80;99.90;;;;;;5089838;28;20483;-47
2022/11/07 08:49:47;;;;;;;6.90;4.97;;;11.10;99.90;;;;;;5082570;28;20884;-47
2022/11/07 08:52:14;;;;;;;7.80;4.77;;;11.40;99.90;;;;;;5082699;28;20443;-48
2022/11/07 08:54:42;;;;;;;5.77;4.27;;;11.90;99.90;;;;;;5094196;28;20508;-47
2022/11/07 08:57:09;;;;;;;6.43;4.07;;;12.20;99.90;;;;;;5092017;28;20447;-47
2022/11/07 08:59:36;;;;;;;6.20;4.37;;;11.60;99.90;;;;;;5076443;28;20871;-49
2022/11/07 09:02:03;;;;;;;5.80;3.57;;;12.40;99.90;;;;;;5094956;28;20433;-46
2022/11/07 09:04:30;;;;;;;6.73;3.60;;;12.40;99.90;;;;;;5076441;28;20970;-47
2022/11/07 09:07:00;;;;;;;6.87;5.00;;;12.00;99.90;;;;;;5094328;28;20458;-46
2022/11/07 09:09:29;;;;;;;13.70;3.80;;;12.30;99.90;;;;;;5075340;28;20439;-46
2022/11/07 09:11:57;;;;;;;6.73;4.30;;;12.50;99.90;;;;;;5094506;28;20846;-46
2022/11/07 09:14:24;;;;;;;8.40;3.80;;;12.40;99.90;;;;;;5092444;28;20465;-46
2022/11/07 09:16:53;;;;;;;24.53;6.40;;;12.40;99.90;;;;;;5094069;28;20435;-47
2022/11/07 09:19:20;;;;;;;7.60;3.97;;;12.80;99.90;;;;;;5093389;28;20430;-47
2022/11/07 09:21:48;;;;;;;16.33;4.63;;;12.40;99.90;;;;;;5075659;28;20462;-45
2022/11/07 09:24:14;;;;;;;7.10;4.07;;;12.30;99.90;;;;;;5094143;28;20478;-48
2022/11/07 09:26:43;;;;;;;6.60;3.80;;;12.50;99.90;;;;;;5094190;28;20503;-47
2022/11/07 09:29:12;;;;;;;9.33;4.07;;;12.70;99.90;;;;;;5093500;28;20517;-47
2022/11/07 09:31:38;;;;;;;8.07;4.43;;;12.70;99.90;;;;;;5075933;28;20473;-45
2022/11/07 09:34:06;;;;;;;6.90;4.40;;;13.10;99.90;;;;;;5075476;28;20990;-46
2022/11/07 09:36:33;;;;;;;12.83;4.13;;;12.50;99.90;;;;;;5094021;28;20557;-47
2022/11/07 09:39:00;;;;;;;11.83;3.43;;;12.90;99.90;;;;;;5093558;28;20432;-46
2022/11/07 09:41:40;;;;;;;6.50;3.60;;;12.70;99.90;;;;;;5094936;28;20455;-49
2022/11/07 09:44:40;;;;;;;6.20;3.27;;;12.90;99.90;;;;;;5093878;28;20860;-48
2022/11/07 09:47:18;;;;;;;7.43;3.93;;;13.40;99.90;;;;;;5075211;28;20483;-49
2022/11/07 09:49:47;;;;;;;6.60;3.10;;;12.90;99.90;;;;;;5074757;28;20451;-46
2022/11/07 09:52:19;;;;;;;5.30;3.77;;;13.20;99.90;;;;;;5092886;28;20959;-47
2022/11/07 09:54:51;;;;;;;7.20;4.07;;;13.40;99.90;;;;;;5092805;28;20458;-47
2022/11/07 09:57:19;;;;;;;9.20;3.90;;;13.30;99.90;;;;;;5075215;28;20535;-47
2022/11/07 09:59:52;;;;;;;6.53;3.47;;;13.20;99.90;;;;;;5094920;28;20414;-46
2022/11/07 10:02:23;;;;;;;7.90;3.00;;;13.60;99.90;;;;;;5095111;28;20422;-46
2022/11/07 10:04:56;;;;;;;4.77;2.90;;;13.40;99.90;;;;;;5095199;28;20458;-46
2022/11/07 10:07:30;;;;;;;4.20;3.47;;;13.80;99.90;;;;;;5075504;28;20857;-46
2022/11/07 10:10:03;;;;;;;8.57;3.83;;;13.30;99.90;;;;;;5093412;28;20829;-47
2022/11/07 10:12:59;;;;;;;7.03;4.10;;;14.00;99.90;;;;;;5075270;28;20442;-46
2022/11/07 10:15:33;;;;;;;5.93;3.10;;;13.50;99.90;;;;;;5093956;28;20530;-47
2022/11/07 10:18:13;;;;;;;6.10;3.73;;;13.20;99.90;;;;;;5074861;28;20835;-46
2022/11/07 10:20:51;;;;;;;6.53;3.53;;;13.50;99.90;;;;;;5074390;28;20451;-47
2022/11/07 10:23:33;;;;;;;10.20;4.53;;;13.20;99.90;;;;;;5092593;28;20427;-46
2022/11/07 10:26:05;;;;;;;6.00;3.40;;;13.20;99.90;;;;;;5093041;28;20445;-47
2022/11/07 10:28:32;;;;;;;48.60;7.00;;;13.20;99.90;;;;;;5074248;28;20829;-46
2022/11/07 10:31:04;;;;;;;5.27;3.83;;;13.50;99.90;;;;;;5074543;28;20445;-47
2022/11/07 10:33:40;;;;;;;8.23;5.13;;;13.40;99.90;;;;;;5092474;28;20489;-47
2022/11/07 10:36:16;;;;;;;6.33;4.40;;;13.20;99.90;;;;;;5093699;22;20490;-48
2022/11/07 10:38:43;;;;;;;10.43;6.50;;;13.50;99.90;;;;;;5069647;28;20525;-48
2022/11/07 10:41:15;;;;;;;8.70;3.60;;;13.30;99.90;;;;;;5070614;28;21002;-48
2022/11/07 10:43:45;;;;;;;8.60;3.90;;;13.40;99.90;;;;;;5071895;28;20897;-48
2022/11/07 10:46:19;;;;;;;14.60;4.30;;;12.70;99.90;;;;;;5071301;28;21000;-49
2022/11/07 10:48:55;;;;;;;5.10;3.27;;;13.40;99.90;;;;;;5069934;28;20477;-48
2022/11/07 10:51:33;;;;;;;7.93;2.90;;;13.50;99.90;;;;;;5069999;28;20976;-49
2022/11/07 10:54:00;;;;;;;25.53;4.70;;;13.10;99.90;;;;;;5069957;28;20485;-48
2022/11/07 10:56:29;;;;;;;12.50;6.40;;;13.40;99.90;;;;;;5071260;28;20437;-48
2022/11/07 10:58:57;;;;;;;8.43;4.80;;;13.20;99.90;;;;;;5069525;28;20443;-48
2022/11/07 11:01:27;;;;;;;5.93;3.40;;;13.20;99.90;;;;;;5069898;28;20441;-48
2022/11/07 11:03:54;;;;;;;8.33;2.97;;;13.80;99.90;;;;;;5070099;28;20475;-49
2022/11/07 11:06:27;;;;;;;9.80;3.43;;;13.30;99.90;;;;;;5069411;28;20457;-49
2022/11/07 11:08:57;;;;;;;9.63;3.27;;;13.50;99.90;;;;;;5069471;28;21007;-48
2022/11/07 11:11:32;;;;;;;6.77;3.07;;;13.90;99.90;;;;;;5070281;28;20416;-48
2022/11/07 11:14:04;;;;;;;7.87;3.63;;;13.20;99.90;;;;;;5066408;28;20832;-48
2022/11/07 11:16:36;;;;;;;9.57;3.40;;;13.70;99.90;;;;;;5062819;28;20434;-47
2022/11/07 11:19:03;;;;;;;7.03;3.13;;;13.80;99.90;;;;;;5070837;28;20543;-49
2022/11/07 11:21:42;;;;;;;7.63;2.60;;;13.90;99.90;;;;;;5071237;28;20487;-49
2022/11/07 11:24:29;;;;;;;8.80;3.40;;;13.90;99.90;;;;;;5066372;28;20474;-49
2022/11/07 11:26:59;;;;;;;5.93;2.97;;;13.90;99.90;;;;;;5051107;28;20481;-47
2022/11/07 11:29:48;;;;;;;6.67;3.23;;;13.50;99.90;;;;;;5068067;28;20934;-47
2022/11/07 11:32:21;;;;;;;7.00;2.47;;;13.90;99.90;;;;;;5069768;28;20461;-49
2022/11/07 11:34:55;;;;;;;10.67;2.97;;;14.30;99.90;;;;;;5070280;28;20490;-48
2022/11/07 11:37:23;;;;;;;8.15;2.70;;;13.60;99.90;;;;;;5069834;28;20422;-48
2022/11/07 11:40:05;;;;;;;9.93;3.50;;;14.30;99.90;;;;;;5071078;28;20218;-49
2022/11/07 11:42:41;;;;;;;8.80;2.87;;;14.10;99.90;;;;;;5069503;28;20454;-49
2022/11/07 11:45:16;;;;;;;12.07;2.93;;;13.50;99.90;;;;;;5071458;28;20452;-49
2022/11/07 11:47:53;;;;;;;8.33;2.83;;;14.00;99.90;;;;;;5071654;28;20473;-49
2022/11/07 11:50:27;;;;;;;5.30;2.73;;;14.20;99.90;;;;;;5070002;28;20578;-50
2022/11/07 11:52:54;;;;;;;8.27;3.50;;;14.10;99.90;;;;;;5069641;28;20605;-47
2022/11/07 11:55:25;;;;;;;9.77;3.00;;;14.00;99.90;;;;;;5058120;28;20478;-49
2022/11/07 11:58:01;;;;;;;8.70;3.07;;;13.80;99.90;;;;;;5051301;28;20510;-48
2022/11/07 12:00:31;;;;;;;4.93;2.70;;;14.10;99.90;;;;;;5050628;28;20431;-49
2022/11/07 12:03:34;;;;;;;11.53;3.73;;;14.40;99.90;;;;;;5064068;28;20417;-48
2022/11/07 12:06:14;;;;;;;9.33;2.60;;;14.40;99.90;;;;;;5069586;28;20450;-49
2022/11/07 12:09:19;;;;;;;9.57;3.20;;;14.10;99.90;;;;;;5069018;28;20478;-48
2022/11/07 12:11:57;;;;;;;5.33;2.43;;;14.10;99.90;;;;;;5055811;28;20453;-48
2022/11/07 12:14:50;;;;;;;6.33;2.60;;;14.30;99.90;;;;;;5069412;28;20497;-48
2022/11/07 12:17:26;;;;;;;4.60;2.57;;;14.40;99.90;;;;;;5071404;28;20442;-48
2022/11/07 12:20:02;;;;;;;5.37;2.60;;;14.30;99.90;;;;;;5074418;28;20442;-49
2022/11/07 12:22:43;;;;;;;6.10;2.40;;;14.30;99.90;;;;;;5074902;28;20506;-48
2022/11/07 12:25:20;;;;;;;5.97;2.80;;;14.10;99.90;;;;;;5074349;28;20456;-48
2022/11/07 12:27:56;;;;;;;3.93;2.70;;;14.50;99.90;;;;;;5074755;28;20831;-49
2022/11/07 12:30:28;;;;;;;5.93;3.30;;;14.30;99.90;;;;;;5073484;28;20428;-48
2022/11/07 12:33:08;;;;;;;21.87;4.03;;;14.40;99.90;;;;;;5072870;28;20868;-49
2022/11/07 12:35:45;;;;;;;6.27;2.83;;;14.40;99.90;;;;;;5074006;28;20462;-48
2022/11/07 12:38:36;;;;;;;6.67;2.93;;;14.40;99.90;;;;;;5074458;28;20433;-48
2022/11/07 12:41:11;;;;;;;8.43;2.87;;;14.50;99.90;;;;;;5072295;28;20474;-47
2022/11/07 12:43:48;;;;;;;4.57;2.90;;;14.50;99.90;;;;;;5074122;28;20442;-47
2022/11/07 12:46:22;;;;;;;5.40;2.60;;;14.40;99.90;;;;;;5073997;28;20559;-48
2022/11/07 12:49:01;;;;;;;5.83;3.20;;;14.60;99.90;;;;;;5072243;28;20573;-48
2022/11/07 12:51:40;;;;;;;5.87;3.50;;;14.20;99.90;;;;;;5073846;28;20523;-48
2022/11/07 12:54:25;;;;;;;10.73;3.40;;;14.60;99.90;;;;;;5073517;28;20942;-48
2022/11/07 12:56:54;;;;;;;12.70;3.80;;;14.70;99.90;;;;;;5083360;28;20433;-48
2022/11/07 12:59:26;;;;;;;8.07;2.70;;;14.60;99.90;;;;;;5092130;28;20464;-49
2022/11/07 13:02:01;;;;;;;11.03;4.27;;;14.80;99.90;;;;;;5093463;28;20451;-48
2022/11/07 13:04:34;;;;;;;7.83;3.30;;;14.70;99.90;;;;;;5091637;28;20953;-49
2022/11/07 13:07:06;;;;;;;7.20;2.57;;;14.30;99.90;;;;;;5094151;28;20429;-49